createdAt,value
2019-05-11T00:00:51.331Z,9.90
2019-05-11T00:03:21.762Z,9.90
2019-05-11T00:05:52.594Z,9.90
2019-05-11T00:08:22.613Z,9.90
2019-05-11T00:10:52.782Z,10.00
2019-05-11T00:13:23.690Z,10.00
2019-05-11T00:15:53.836Z,10.10
2019-05-11T00:18:24.047Z,10.20
2019-05-11T00:20:54.533Z,10.20
2019-05-11T00:23:24.690Z,10.20
2019-05-11T00:25:55.708Z,10.20
2019-05-11T00:28:26.094Z,10.20
2019-05-11T00:30:56.330Z,10.20
2019-05-11T00:33:26.332Z,10.20
2019-05-11T00:35:56.796Z,10.30
2019-05-11T00:38:28.331Z,10.30
2019-05-11T00:40:58.447Z,10.30
2019-05-11T00:43:28.489Z,10.40
2019-05-11T00:45:58.632Z,10.40
2019-05-11T00:48:29.028Z,10.40
2019-05-11T00:50:59.673Z,10.50
2019-05-11T00:53:29.918Z,10.40
2019-05-11T00:56:00.339Z,10.40
2019-05-11T00:58:33.636Z,10.30
2019-05-11T01:01:04.566Z,10.30
2019-05-11T01:03:38.634Z,10.30
2019-05-11T01:06:11.708Z,10.20
2019-05-11T01:08:45.864Z,10.20
2019-05-11T01:11:16.268Z,10.20
2019-05-11T01:13:46.712Z,10.30
2019-05-11T01:16:17.134Z,10.30
2019-05-11T01:18:47.804Z,10.30
2019-05-11T01:21:17.956Z,10.30
2019-05-11T01:23:48.347Z,10.30
2019-05-11T01:26:18.381Z,10.30
2019-05-11T01:28:49.070Z,10.30
2019-05-11T01:31:19.495Z,10.30
2019-05-11T01:33:50.454Z,10.30
2019-05-11T01:36:20.650Z,10.30
2019-05-11T01:38:50.793Z,10.30
2019-05-11T01:41:21.021Z,10.30
2019-05-11T01:43:51.578Z,10.30
2019-05-11T01:46:21.941Z,10.30
2019-05-11T01:48:51.956Z,10.30
2019-05-11T01:51:22.043Z,10.30
2019-05-11T01:53:53.462Z,10.40
2019-05-11T01:56:23.990Z,10.30
2019-05-11T01:58:54.146Z,10.30
2019-05-11T02:01:24.635Z,10.40
2019-05-11T02:03:54.879Z,10.40
2019-05-11T02:06:25.358Z,10.40
2019-05-11T02:08:55.710Z,10.30
2019-05-11T02:11:25.853Z,10.40
2019-05-11T02:13:55.857Z,10.30
2019-05-11T02:16:26.570Z,10.40
2019-05-11T02:18:56.775Z,10.30
2019-05-11T02:21:26.816Z,10.40
2019-05-11T02:23:57.871Z,10.40
2019-05-11T02:26:27.910Z,10.50
2019-05-11T02:28:57.925Z,10.50
2019-05-11T02:31:28.494Z,10.60
2019-05-11T02:33:58.537Z,10.60
2019-05-11T02:36:28.658Z,10.70
2019-05-11T02:38:58.889Z,10.70
2019-05-11T02:41:36.529Z,10.70
2019-05-11T02:44:01.369Z,10.70
2019-05-11T02:46:31.383Z,10.70
2019-05-11T02:49:01.781Z,10.70
2019-05-11T02:51:32.416Z,10.60
2019-05-11T02:54:03.761Z,10.70
2019-05-11T02:56:33.868Z,10.70
2019-05-11T02:59:03.876Z,10.60
2019-05-11T03:01:33.913Z,10.60
2019-05-11T03:04:04.257Z,10.70
2019-05-11T03:06:34.569Z,10.60
2019-05-11T03:09:06.771Z,10.60
2019-05-11T03:11:53.959Z,10.60
2019-05-11T03:14:08.647Z,10.50
2019-05-11T03:16:39.602Z,10.50
2019-05-11T03:19:09.650Z,10.60
2019-05-11T03:21:40.028Z,10.60
2019-05-11T03:24:10.160Z,10.50
2019-05-11T03:26:40.693Z,10.60
2019-05-11T03:29:11.276Z,10.50
2019-05-11T03:31:41.647Z,10.50
2019-05-11T03:34:11.710Z,10.50
2019-05-11T03:36:41.837Z,10.50
2019-05-11T03:39:13.335Z,10.50
2019-05-11T03:41:43.849Z,10.50
2019-05-11T03:44:13.917Z,10.50
2019-05-11T03:46:44.037Z,10.50
2019-05-11T03:49:14.544Z,10.60
2019-05-11T03:51:44.603Z,10.60
2019-05-11T03:54:15.253Z,10.60
2019-05-11T03:56:45.848Z,10.60
2019-05-11T03:59:16.069Z,10.60
2019-05-11T04:01:46.088Z,10.60
2019-05-11T04:04:16.826Z,10.70
2019-05-11T04:06:47.104Z,10.70
2019-05-11T04:09:17.637Z,10.70
2019-05-11T04:11:48.096Z,10.70
2019-05-11T04:14:18.481Z,10.80
2019-05-11T04:16:48.908Z,10.80
2019-05-11T04:19:18.984Z,10.80
2019-05-11T04:21:49.717Z,10.90
2019-05-11T04:24:20.637Z,10.80
2019-05-11T04:26:50.932Z,10.90
2019-05-11T04:29:21.003Z,10.80
2019-05-11T04:31:51.362Z,10.80
2019-05-11T04:34:21.902Z,10.80
2019-05-11T04:36:52.068Z,10.80
2019-05-11T04:39:22.280Z,10.90
2019-05-11T04:41:52.419Z,10.90
2019-05-11T04:44:22.491Z,10.90
2019-05-11T04:46:52.585Z,10.90
2019-05-11T04:49:23.024Z,10.90
2019-05-11T04:51:53.292Z,10.90
2019-05-11T04:54:25.046Z,10.90
2019-05-11T04:56:56.112Z,10.90
2019-05-11T04:59:26.559Z,11.00
2019-05-11T05:01:56.694Z,11.00
2019-05-11T05:04:27.122Z,11.10
2019-05-11T05:07:05.375Z,11.10
2019-05-11T05:09:36.227Z,11.10
2019-05-11T05:12:08.578Z,11.10
2019-05-11T05:14:37.642Z,11.20
2019-05-11T05:17:08.132Z,11.30
2019-05-11T05:19:38.394Z,11.30
2019-05-11T05:22:08.536Z,11.40
2019-05-11T05:24:39.043Z,11.50
2019-05-11T05:27:09.559Z,11.50
2019-05-11T05:29:40.486Z,11.50
2019-05-11T05:32:10.931Z,11.50
2019-05-11T05:34:41.033Z,11.50
2019-05-11T05:37:11.516Z,11.60
2019-05-11T05:39:44.363Z,11.60
2019-05-11T05:42:14.981Z,11.70
2019-05-11T05:44:45.718Z,11.80
2019-05-11T05:47:15.988Z,11.90
2019-05-11T05:49:46.368Z,12.10
2019-05-11T05:52:16.628Z,12.30
2019-05-11T05:54:46.947Z,12.40
2019-05-11T05:57:17.468Z,12.50
2019-05-11T05:59:47.890Z,12.60
2019-05-11T06:02:17.968Z,12.60
2019-05-11T06:04:51.052Z,12.50
2019-05-11T06:07:22.163Z,12.50
2019-05-11T06:09:54.628Z,12.60
2019-05-11T06:12:25.516Z,12.60
2019-05-11T06:14:55.736Z,12.70
2019-05-11T06:17:26.530Z,12.90
2019-05-11T06:19:58.713Z,13.10
2019-05-11T06:22:29.258Z,13.30
2019-05-11T06:24:59.399Z,13.60
2019-05-11T06:27:29.432Z,13.80
2019-05-11T06:29:59.498Z,13.70
2019-05-11T06:32:30.217Z,13.60
2019-05-11T06:35:00.639Z,13.50
2019-05-11T06:37:31.103Z,13.40
2019-05-11T06:40:01.573Z,13.30
2019-05-11T06:42:32.545Z,13.40
2019-05-11T06:45:03.043Z,13.50
2019-05-11T06:47:33.137Z,13.50
2019-05-11T06:50:03.193Z,13.50
2019-05-11T06:52:33.407Z,13.60
2019-05-11T06:55:04.038Z,13.70
2019-05-11T06:57:34.551Z,13.80
2019-05-11T07:00:05.520Z,13.90
2019-05-11T07:02:35.919Z,13.80
2019-05-11T07:05:06.717Z,13.70
2019-05-11T07:07:47.037Z,13.60
2019-05-11T07:10:09.369Z,13.50
2019-05-11T07:12:39.479Z,13.50
2019-05-11T07:15:09.618Z,13.60
2019-05-11T07:17:40.059Z,13.70
2019-05-11T07:20:10.979Z,13.60
2019-05-11T07:22:41.805Z,13.60
2019-05-11T07:25:12.236Z,13.70
2019-05-11T07:27:42.879Z,14.10
2019-05-11T07:30:13.374Z,14.50
2019-05-11T07:32:43.676Z,15.10
2019-05-11T07:35:13.877Z,15.50
2019-05-11T07:37:43.980Z,15.60
2019-05-11T07:40:14.239Z,15.80
2019-05-11T07:42:44.359Z,16.30
2019-05-11T07:45:14.661Z,16.70
2019-05-11T07:47:45.027Z,16.90
2019-05-11T07:50:15.207Z,17.00
2019-05-11T07:52:47.682Z,17.00
2019-05-11T07:55:18.989Z,16.70
2019-05-11T07:57:49.432Z,16.70
2019-05-11T08:00:20.676Z,16.70
2019-05-11T08:02:51.498Z,16.70
2019-05-11T08:05:24.737Z,16.60
2019-05-11T08:07:55.293Z,16.60
2019-05-11T08:10:27.976Z,16.40
2019-05-11T08:12:58.728Z,16.30
2019-05-11T08:15:29.285Z,16.40
2019-05-11T08:17:59.840Z,16.20
2019-05-11T08:20:30.912Z,16.30
2019-05-11T08:23:01.559Z,16.60
2019-05-11T08:25:32.434Z,16.80
2019-05-11T08:28:11.029Z,16.90
2019-05-11T08:30:38.230Z,17.10
2019-05-11T08:33:11.807Z,17.50
2019-05-11T08:35:41.969Z,17.80
2019-05-11T08:38:12.086Z,17.90
2019-05-11T08:40:42.265Z,17.80
2019-05-11T08:43:13.470Z,17.30
2019-05-11T08:45:43.930Z,16.80
2019-05-11T08:48:14.091Z,16.70
2019-05-11T08:50:44.464Z,16.70
2019-05-11T08:53:17.694Z,16.80
2019-05-11T08:55:48.551Z,17.10
2019-05-11T08:58:19.601Z,17.40
2019-05-11T09:00:50.665Z,17.70
2019-05-11T09:03:21.001Z,17.80
2019-05-11T09:05:51.725Z,17.70
2019-05-11T09:08:22.218Z,17.60
2019-05-11T09:10:52.688Z,17.20
2019-05-11T09:13:22.777Z,17.20
2019-05-11T09:15:53.230Z,17.30
2019-05-11T09:18:23.284Z,17.60
2019-05-11T09:20:53.614Z,18.00
2019-05-11T09:23:34.499Z,18.40
2019-05-11T09:25:58.188Z,18.70
2019-05-11T09:28:29.484Z,19.10
2019-05-11T09:30:59.788Z,19.50
2019-05-11T09:33:30.508Z,19.90
2019-05-11T09:36:01.000Z,20.10
2019-05-11T09:38:31.478Z,20.20
2019-05-11T09:41:01.616Z,19.90
2019-05-11T09:43:33.445Z,19.40
2019-05-11T09:46:03.656Z,19.10
2019-05-11T09:48:33.784Z,19.10
2019-05-11T09:51:03.907Z,18.90
2019-05-11T09:53:33.996Z,19.00
2019-05-11T09:56:04.127Z,18.90
2019-05-11T09:58:34.226Z,18.80
2019-05-11T10:01:05.098Z,18.60
2019-05-11T10:03:35.174Z,18.30
2019-05-11T10:06:08.335Z,17.90
2019-05-11T10:08:39.012Z,16.30
2019-05-11T10:11:09.118Z,14.90
2019-05-11T10:13:39.265Z,14.50
2019-05-11T10:16:10.688Z,14.60
2019-05-11T10:18:41.272Z,14.50
2019-05-11T10:21:12.909Z,14.50
2019-05-11T10:23:43.068Z,14.60
2019-05-11T10:26:13.394Z,14.50
2019-05-11T10:28:44.286Z,14.30
2019-05-11T10:31:14.880Z,14.30
2019-05-11T10:33:48.673Z,14.20
2019-05-11T10:36:18.874Z,14.20
2019-05-11T10:38:49.317Z,14.30
2019-05-11T10:41:20.255Z,14.70
2019-05-11T10:43:50.306Z,15.30
2019-05-11T10:46:23.464Z,15.70
2019-05-11T10:48:54.044Z,16.10
2019-05-11T10:51:24.177Z,16.10
2019-05-11T10:53:54.302Z,16.10
2019-05-11T10:56:24.413Z,16.20
2019-05-11T10:58:54.793Z,16.10
2019-05-11T11:01:24.969Z,16.00
2019-05-11T11:03:55.311Z,16.00
2019-05-11T11:06:27.991Z,16.20
2019-05-11T11:08:58.039Z,16.80
2019-05-11T11:11:28.631Z,17.00
2019-05-11T11:13:58.961Z,16.80
2019-05-11T11:16:36.990Z,16.50
2019-05-11T11:19:00.843Z,16.40
2019-05-11T11:21:30.877Z,16.40
2019-05-11T11:24:01.637Z,16.60
2019-05-11T11:26:31.791Z,16.80
2019-05-11T11:29:02.238Z,17.00
2019-05-11T11:31:32.741Z,17.20
2019-05-11T11:34:03.191Z,17.40
2019-05-11T11:36:34.371Z,17.80
2019-05-11T11:39:08.355Z,18.40
2019-05-11T11:41:39.619Z,18.90
2019-05-11T11:44:10.146Z,19.40
2019-05-11T11:46:50.798Z,19.60
2019-05-11T11:49:12.325Z,19.70
2019-05-11T11:51:42.930Z,20.00
2019-05-11T11:54:13.162Z,20.00
2019-05-11T11:56:44.005Z,20.00
2019-05-11T11:59:14.075Z,19.90
2019-05-11T12:01:44.557Z,20.00
2019-05-11T12:04:18.605Z,20.00
2019-05-11T12:06:49.092Z,20.00
2019-05-11T12:09:19.789Z,20.10
2019-05-11T12:11:49.903Z,20.00
2019-05-11T12:14:20.073Z,19.90
2019-05-11T12:17:03.974Z,20.00
2019-05-11T12:19:23.337Z,20.30
2019-05-11T12:21:53.433Z,20.60
2019-05-11T12:24:23.439Z,20.60
2019-05-11T12:26:54.872Z,20.60
2019-05-11T12:29:24.903Z,20.50
2019-05-11T12:31:55.347Z,19.80
2019-05-11T12:34:28.327Z,19.50
2019-05-11T12:37:02.334Z,19.10
2019-05-11T12:39:32.849Z,18.90
2019-05-11T12:42:03.810Z,18.90
2019-05-11T12:44:34.089Z,18.90
2019-05-11T12:47:18.463Z,18.60
2019-05-11T12:49:36.392Z,18.60
2019-05-11T12:52:07.735Z,18.70
2019-05-11T12:54:38.545Z,19.30
2019-05-11T12:57:08.719Z,19.40
2019-05-11T12:59:38.805Z,18.80
2019-05-11T13:02:08.942Z,18.90
2019-05-11T13:04:39.878Z,19.10
2019-05-11T13:07:09.920Z,18.90
2019-05-11T13:09:40.455Z,19.10
2019-05-11T13:12:10.931Z,18.90
2019-05-11T13:14:41.472Z,18.80
2019-05-11T13:17:11.899Z,18.90
2019-05-11T13:19:42.651Z,18.80
2019-05-11T13:22:14.224Z,18.50
2019-05-11T13:24:44.298Z,18.30
2019-05-11T13:27:14.409Z,18.50
2019-05-11T13:29:45.664Z,18.40
2019-05-11T13:32:18.025Z,18.50
2019-05-11T13:34:48.160Z,18.80
2019-05-11T13:37:20.597Z,18.80
2019-05-11T13:39:53.759Z,18.80
2019-05-11T13:42:24.555Z,19.20
2019-05-11T13:44:54.706Z,19.10
2019-05-11T13:47:25.324Z,19.20
2019-05-11T13:49:58.266Z,19.30
2019-05-11T13:52:28.678Z,19.20
2019-05-11T13:54:58.863Z,18.80
2019-05-11T13:57:29.218Z,19.00
2019-05-11T13:59:59.827Z,19.20
2019-05-11T14:02:30.220Z,19.00
2019-05-11T14:05:00.691Z,19.10
2019-05-11T14:07:30.806Z,18.80
2019-05-11T14:10:01.845Z,18.80
2019-05-11T14:12:31.986Z,18.70
2019-05-11T14:15:02.363Z,18.60
2019-05-11T14:17:32.845Z,18.80
2019-05-11T14:20:03.647Z,19.10
2019-05-11T14:22:33.786Z,19.10
2019-05-11T14:25:03.811Z,19.00
2019-05-11T14:27:34.470Z,19.30
2019-05-11T14:30:05.151Z,19.30
2019-05-11T14:32:35.300Z,19.20
2019-05-11T14:35:09.812Z,19.10
2019-05-11T14:37:38.078Z,19.30
2019-05-11T14:40:08.918Z,19.40
2019-05-11T14:42:39.088Z,19.20
2019-05-11T14:45:09.893Z,19.00
2019-05-11T14:47:42.606Z,18.90
2019-05-11T14:50:12.209Z,18.80
2019-05-11T14:52:42.453Z,18.90
2019-05-11T14:55:12.804Z,18.70
2019-05-11T14:57:43.795Z,18.50
2019-05-11T15:00:15.148Z,17.70
2019-05-11T15:02:49.804Z,17.00
2019-05-11T15:05:22.182Z,17.00
2019-05-11T15:07:53.077Z,16.70
2019-05-11T15:10:24.067Z,16.60
2019-05-11T15:12:54.571Z,16.30
2019-05-11T15:15:24.919Z,15.80
2019-05-11T15:17:54.986Z,15.70
2019-05-11T15:20:25.079Z,15.50
2019-05-11T15:22:55.172Z,15.50
2019-05-11T15:25:25.297Z,15.60
2019-05-11T15:27:55.671Z,15.70
2019-05-11T15:30:25.935Z,15.40
2019-05-11T15:32:58.057Z,15.50
2019-05-11T15:35:28.525Z,15.50
2019-05-11T15:37:58.892Z,15.50
2019-05-11T15:40:29.263Z,15.40
2019-05-11T15:42:59.828Z,15.30
2019-05-11T15:45:30.353Z,15.30
2019-05-11T15:48:00.447Z,15.30
2019-05-11T15:50:30.643Z,15.20
2019-05-11T15:53:00.824Z,15.30
2019-05-11T15:55:31.364Z,15.30
2019-05-11T15:58:01.765Z,15.20
2019-05-11T16:00:32.328Z,15.30
2019-05-11T16:03:02.343Z,15.30
2019-05-11T16:05:32.750Z,15.30
2019-05-11T16:08:03.192Z,15.30
2019-05-11T16:10:33.341Z,15.20
2019-05-11T16:13:03.877Z,15.30
2019-05-11T16:15:35.580Z,15.40
2019-05-11T16:18:08.152Z,15.40
2019-05-11T16:20:38.072Z,15.40
2019-05-11T16:23:08.477Z,15.30
2019-05-11T16:25:41.076Z,15.30
2019-05-11T16:28:11.296Z,15.20
2019-05-11T16:30:41.854Z,15.00
2019-05-11T16:33:12.649Z,15.00
2019-05-11T16:35:42.848Z,14.90
2019-05-11T16:38:12.862Z,14.80
2019-05-11T16:40:42.975Z,14.80
2019-05-11T16:43:13.473Z,14.80
2019-05-11T16:45:43.827Z,14.80
2019-05-11T16:48:13.858Z,14.80
2019-05-11T16:50:44.002Z,14.80
2019-05-11T16:53:14.987Z,14.90
2019-05-11T16:55:45.025Z,15.00
2019-05-11T16:58:15.388Z,15.00
2019-05-11T17:00:48.771Z,15.00
2019-05-11T17:03:18.176Z,14.90
2019-05-11T17:05:48.614Z,14.90
2019-05-11T17:08:18.928Z,14.80
2019-05-11T17:10:59.407Z,14.80
2019-05-11T17:13:32.542Z,14.80
2019-05-11T17:16:02.904Z,14.90
2019-05-11T17:18:33.559Z,14.80
2019-05-11T17:21:04.069Z,14.90
2019-05-11T17:23:38.333Z,14.80
2019-05-11T17:26:09.157Z,14.80
2019-05-11T17:28:40.118Z,14.70
2019-05-11T17:31:10.939Z,14.60
2019-05-11T17:33:41.630Z,14.60
2019-05-11T17:36:12.118Z,14.50
2019-05-11T17:38:42.844Z,14.50
2019-05-11T17:41:13.270Z,14.50
2019-05-11T17:43:45.323Z,14.40
2019-05-11T17:46:18.248Z,14.30
2019-05-11T17:48:48.012Z,14.30
2019-05-11T17:51:22.540Z,14.20
2019-05-11T17:53:52.505Z,14.20
2019-05-11T17:56:23.283Z,14.20
2019-05-11T17:58:54.002Z,14.20
2019-05-11T18:01:24.118Z,14.20
2019-05-11T18:03:54.543Z,14.20
2019-05-11T18:06:24.739Z,14.20
2019-05-11T18:08:54.794Z,14.20
2019-05-11T18:11:25.002Z,14.10
2019-05-11T18:13:55.051Z,14.00
2019-05-11T18:16:25.345Z,14.00
2019-05-11T18:18:58.576Z,13.90
2019-05-11T18:21:28.512Z,13.90
2019-05-11T18:23:58.600Z,13.80
2019-05-11T18:26:28.858Z,13.70
2019-05-11T18:28:58.860Z,13.70
2019-05-11T18:31:29.009Z,13.70
2019-05-11T18:33:59.562Z,13.70
2019-05-11T18:36:30.025Z,13.60
2019-05-11T18:39:00.558Z,13.60
2019-05-11T18:41:30.912Z,13.60
2019-05-11T18:44:01.661Z,13.50
2019-05-11T18:46:33.105Z,13.50
2019-05-11T18:49:03.303Z,13.30
2019-05-11T18:51:34.027Z,13.30
2019-05-11T18:54:04.693Z,13.20
2019-05-11T18:56:34.825Z,13.10
2019-05-11T18:59:05.003Z,13.10
2019-05-11T19:01:37.829Z,13.00
2019-05-11T19:04:07.937Z,12.90
2019-05-11T19:06:39.434Z,12.80
2019-05-11T19:09:09.520Z,12.70
2019-05-11T19:11:42.483Z,12.70
2019-05-11T19:14:11.378Z,12.70
2019-05-11T19:16:41.569Z,12.70
2019-05-11T19:19:12.594Z,12.70
2019-05-11T19:21:44.347Z,12.60
2019-05-11T19:24:14.533Z,12.60
2019-05-11T19:26:45.067Z,12.50
2019-05-11T19:29:17.784Z,12.30
2019-05-11T19:31:47.707Z,12.20
2019-05-11T19:34:20.368Z,12.10
2019-05-11T19:36:49.860Z,12.10
2019-05-11T19:39:20.231Z,12.00
2019-05-11T19:41:50.584Z,11.90
2019-05-11T19:44:21.151Z,11.80
2019-05-11T19:46:51.319Z,11.70
2019-05-11T19:49:21.458Z,11.60
2019-05-11T19:51:51.578Z,11.70
2019-05-11T19:54:21.974Z,11.70
2019-05-11T19:56:52.465Z,11.60
2019-05-11T19:59:22.587Z,11.50
2019-05-11T20:01:53.525Z,11.50
2019-05-11T20:04:23.708Z,11.50
2019-05-11T20:06:54.166Z,11.50
2019-05-11T20:09:28.216Z,11.50
2019-05-11T20:11:58.336Z,11.60
2019-05-11T20:14:29.238Z,11.60
2019-05-11T20:16:59.695Z,11.60
2019-05-11T20:19:29.809Z,11.60
2019-05-11T20:22:00.323Z,11.50
2019-05-11T20:24:30.561Z,11.40
2019-05-11T20:27:01.004Z,11.40
2019-05-11T20:29:31.291Z,11.40
2019-05-11T20:32:04.234Z,11.30
2019-05-11T20:34:34.555Z,11.30
2019-05-11T20:37:07.698Z,11.20
2019-05-11T20:39:37.941Z,11.10
2019-05-11T20:42:08.751Z,11.10
2019-05-11T20:44:39.470Z,11.10
2019-05-11T20:47:09.789Z,11.10
2019-05-11T20:49:40.364Z,11.00
2019-05-11T20:52:10.571Z,10.80
2019-05-11T20:54:40.693Z,10.60
2019-05-11T20:57:11.238Z,10.40
2019-05-11T20:59:42.453Z,10.20
2019-05-11T21:02:13.380Z,10.20
2019-05-11T21:04:43.932Z,10.10
2019-05-11T21:07:14.050Z,10.00
2019-05-11T21:09:44.135Z,9.90
2019-05-11T21:12:14.336Z,9.80
2019-05-11T21:14:44.895Z,9.80
2019-05-11T21:17:15.095Z,9.80
2019-05-11T21:19:47.768Z,9.80
2019-05-11T21:22:17.482Z,9.80
2019-05-11T21:24:49.648Z,9.80
2019-05-11T21:27:20.198Z,9.80
2019-05-11T21:29:51.167Z,9.80
2019-05-11T21:32:21.795Z,9.80
2019-05-11T21:34:51.841Z,9.80
2019-05-11T21:37:22.052Z,9.80
2019-05-11T21:39:52.642Z,9.80
2019-05-11T21:42:23.513Z,9.80
2019-05-11T21:44:53.827Z,9.70
2019-05-11T21:47:24.269Z,9.70
2019-05-11T21:49:57.661Z,9.80
2019-05-11T21:52:28.744Z,9.80
2019-05-11T21:55:00.223Z,9.80
2019-05-11T21:57:30.440Z,9.80
2019-05-11T22:00:00.661Z,9.70
2019-05-11T22:02:31.005Z,9.70
2019-05-11T22:05:03.527Z,9.70
2019-05-11T22:07:35.356Z,9.70
2019-05-11T22:10:06.062Z,9.70
2019-05-11T22:12:38.740Z,9.60
2019-05-11T22:15:09.583Z,9.60
2019-05-11T22:17:40.890Z,9.60
2019-05-11T22:20:12.901Z,9.70
2019-05-11T22:22:43.280Z,9.70
2019-05-11T22:25:14.616Z,9.60
2019-05-11T22:27:44.766Z,9.60
2019-05-11T22:30:15.144Z,9.60
2019-05-11T22:32:45.196Z,9.60
2019-05-11T22:35:18.080Z,9.60
2019-05-11T22:37:49.017Z,9.60
2019-05-11T22:40:19.374Z,9.50
2019-05-11T22:42:49.555Z,9.50
2019-05-11T22:45:20.060Z,9.50
2019-05-11T22:47:50.162Z,9.50
2019-05-11T22:50:20.813Z,9.50
2019-05-11T22:52:51.134Z,9.50
2019-05-11T22:55:21.225Z,9.40
2019-05-11T22:57:51.434Z,9.40
2019-05-11T23:00:44.879Z,9.40
2019-05-11T23:03:15.693Z,9.30
2019-05-11T23:05:47.695Z,9.30
2019-05-11T23:08:18.194Z,9.30
2019-05-11T23:10:49.243Z,9.30
2019-05-11T23:13:19.854Z,9.30
2019-05-11T23:15:50.271Z,9.30
2019-05-11T23:18:20.683Z,9.30
2019-05-11T23:20:51.158Z,9.30
2019-05-11T23:23:23.171Z,9.40
2019-05-11T23:25:53.349Z,9.30
2019-05-11T23:28:23.508Z,9.30
2019-05-11T23:30:53.577Z,9.30
2019-05-11T23:33:23.673Z,9.30
2019-05-11T23:35:53.833Z,9.30
2019-05-11T23:38:23.932Z,9.30
2019-05-11T23:40:54.037Z,9.30
2019-05-11T23:43:24.564Z,9.20
2019-05-11T23:45:54.673Z,9.20
2019-05-11T23:48:27.789Z,9.20
2019-05-11T23:50:58.039Z,9.10
2019-05-11T23:53:29.637Z,9.00
2019-05-11T23:56:00.379Z,8.90
2019-05-11T23:58:30.415Z,8.80
